Cincinnati Municipal Airport

Airport
ICAO code: 
KLUK
Summary
ICAO Region: 
NAM
Territory: 
Location: 
Cincinnati, Ohio,
Coordinates: 
Aerial View: 
39° 6' 11.999" N, 84° 25' 8.011" W
Airport LOS: 
Parallel Runway Operation
Airport WX: 
Cumulonimbus
Metar
Observation
KLUK 040653Z AUTO 35003KT 10SM CLR 03/02 A3004 RMK AO2 SLP174 T00280017
Station
Cincinnati, Cincinnati Municipal Airport Lunken Field
Date/Time
2021-12-04 06:53:00
Wind direction
350°
Wind speed
03 kts
Lowest cloud amount
n/a
Temperature
2.8°C
Dew point
1.7°C
Humidity
92%
Weather condition
n/a

Description

Cincinnati Municipal Airport, also know as Lunken Field, is a public use airport located 5 km southeast of the central business district of Cincinnati, Ohio.

Climatology

Transition zone of humid “subtropical” climate (Köppen climate classification Cfa) and humid continental climate (Köppen climate classification Dfa) - characterized by hot, humid summers and cool winters. Significant amounts of precipitation occur in all seasons in most areas. Winter snowfall is associated with large storms that the westerlies steer from west to east. Most summer rainfall occurs during thunderstorms.

Runways

Designator Length Width Surface Rops
03L/21R 1159 30 ASP Yes/Yes
7/25 1563 30 ASP Yes/Yes
03R/21L 1860 46 ASP Yes/Yes
Airport map: 
Aerial View: 

SKYbrary Partners:

Safety knowledge contributed by: